• Join FlightAware (Why Join?)
  • Login
  • US Flag 
11:07AM EST


 

Airport Tracker/Info


-or-


 

Live Flight TrackerFlight Track Log ✈ N690TW ✈ 08-Nov-2013 ✈ KGJT - KGEU

Flight Track Log - Related Links

Times and Time Zones

All times are in EST time to prevent confusion due to time zone crossing. See the N690TW flight status page for this flight to view local times or setup timezone preferences in your user account.

Time Position Orientation Groundspeed Altitude Reporting Facility
EST Latitude Longitude Course Direction KTS MPH feet Rate Location/Type
02:30PM 39.0833 -108.5000 214° Southwest 177 204 7,100  Level Denver TRACON
02:32PM 39.0247 -108.5122 189° South 172 198 9,500 1,920 Climbing Denver Center
02:33PM 38.9875 -108.5439 213° Southwest 163 188 11,400 1,800 Climbing Denver Center
02:34PM 38.9456 -108.5794 213° Southwest 168 193 13,300 1,740 Climbing Denver Center
02:35PM 38.9047 -108.6156 215° Southwest 178 205 15,000 1,680 Climbing Denver Center
02:36PM 38.7591 -108.8254 214° Southwest  Level FlightAware Approximate
02:36PM 38.8581 -108.6558 214° Southwest 188 216 16,800  Level Denver Center
02:37PM 38.8119 -108.6964 214° Southwest 199 229 18,300 1,500 Climbing Denver Center
02:38PM 38.7664 -108.7350 213° Southwest 197 227 20,000 1,620 Climbing Denver Center
02:39PM 38.7156 -108.7783 214° Southwest 204 235 21,700 1,440 Climbing Denver Center
02:40PM 38.6661 -108.8236 216° Southwest 218 251 23,000 1,320 Climbing Denver Center
02:41PM 38.6133 -108.8686 214° Southwest 224 258 24,500 1,380 Climbing Denver Center
02:42PM 38.5644 -108.9097 213° Southwest 222 255 25,900 1,200 Climbing Denver Center
02:43PM 38.5056 -108.9603 214° Southwest 229 264 27,100 1,020 Climbing Denver Center
02:44PM 38.4547 -109.0036 214° Southwest 229 264 28,100 780 Climbing Denver Center
02:45PM 38.3903 -109.0575 213° Southwest 249 287 28,700 540 Climbing Denver Center
02:46PM 38.3322 -109.1083 214° Southwest 265 305 29,300 600 Climbing Denver Center
02:47PM 38.2628 -109.1675 214° Southwest 268 308 30,000 600 Climbing Denver Center
02:48PM 38.2011 -109.2192 213° Southwest 275 316 30,600 540 Climbing Denver Center
02:49PM 38.1389 -109.2714 213° Southwest 280 322 31,200 540 Climbing Denver Center
02:50PM 38.0667 -109.3317 213° Southwest 278 320 31,800 360 Climbing Denver Center
02:51PM 38.0014 -109.3864 213° Southwest 281 323 32,000 60 Climbing Denver Center
02:52PM 37.9236 -109.4525 214° Southwest 302 348 32,000  Level Denver Center
02:53PM 37.8558 -109.5075 213° Southwest 302 348 32,000  Level Denver Center
02:55PM 37.7078 -109.6314 214° Southwest 308 354 32,000  Level Denver Center
02:56PM 37.6400 -109.6881 214° Southwest 307 353 32,000  Level Denver Center
02:57PM 37.5603 -109.7547 214° Southwest 308 354 32,000  Level Denver Center
02:58PM 37.4911 -109.8103 213° Southwest 308 354 32,000  Level Denver Center
02:59PM 37.4119 -109.8767 214° Southwest 307 353 32,000  Level Denver Center
03:00PM 37.3433 -109.9325 213° Southwest 307 353 32,000  Level Denver Center
03:01PM 37.2633 -109.9978 213° Southwest 307 353 32,000  Level Denver Center
03:02PM 37.1950 -110.0550 214° Southwest 308 354 32,000  Level Denver Center
03:03PM 37.1258 -110.1108 213° Southwest 309 356 32,000  Level Denver Center
03:04PM 37.0417 -110.1783 213° Southwest 313 360 32,000  Level Denver Center
03:06PM 36.9686 -110.2381 213° Southwest 314 361 32,000  Level Denver Center
03:07PM 36.8958 -110.2975 213° Southwest 313 360 32,000  Level Denver Center
03:08PM 36.8222 -110.3569 213° Southwest 314 361 32,000  Level Denver Center
03:09PM 36.7489 -110.4164 213° Southwest 314 361 32,000  Level Denver Center
03:10PM 36.6758 -110.4750 213° Southwest 313 360 32,000  Level Denver Center
03:11PM 36.5872 -110.5461 213° Southwest 315 362 32,000  Level Denver Center
03:12PM 36.5136 -110.6047 213° Southwest 314 361 32,000  Level Denver Center
03:13PM 36.4386 -110.6642 213° Southwest 317 365 32,000  Level Denver Center
03:14PM 36.3667 -110.7219 213° Southwest 313 360 32,000  Level Denver Center
03:15PM 36.2919 -110.7808 212° Southwest 314 361 32,000  Level Denver Center
03:16PM 36.2192 -110.8375 212° Southwest 312 359 32,000  Level Denver Center
03:17PM 36.1483 -110.8947 213° Southwest 309 356 32,000  Level Denver Center
03:18PM 36.0614 -110.9631 212° Southwest 307 353 32,000 -480 Level Denver Center
03:19PM 35.9919 -111.0194 213° Southwest 303 349 31,100 -840 Descending Denver Center
03:20PM 35.9261 -111.0703 212° Southwest 288 331 30,300 -960 Descending Denver Center
03:21PM 35.8578 -111.1253 213° Southwest 290 334 29,200 -1,020 Descending Denver Center
03:22PM 35.7686 -111.1914 211° Southwest 293 337 28,000 -540 Descending Albuquerque Center
03:23PM 35.6908 -111.2517 212° Southwest 296 341 28,000  Level Albuquerque Center
03:24PM 35.6231 -111.3039 212° Southwest 299 344 28,000  Level Albuquerque Center
03:25PM 35.5553 -111.3564 212° Southwest 301 346 28,000  Level Albuquerque Center
03:26PM 35.4758 -111.4169 212° Southwest 301 346 28,000  Level Albuquerque Center
03:27PM 35.4103 -111.4686 213° Southwest 303 349 28,000  Level Albuquerque Center
03:28PM 35.3408 -111.5214 212° Southwest 297 342 28,000  Level Albuquerque Center
03:29PM 35.2564 -111.5872 212° Southwest 299 344 28,000  Level Albuquerque Center
03:31PM 35.1864 -111.6406 212° Southwest 298 343 28,000  Level Albuquerque Center
03:32PM 35.1125 -111.6856 206° Southwest 300 345 28,000  Level Albuquerque Center
03:33PM 35.0322 -111.7072 192° South 296 341 28,000  Level Albuquerque Center
03:34PM 34.9553 -111.7592 209° Southwest 293 337 28,000  Level Albuquerque Center
03:35PM 34.8889 -111.8161 215° Southwest 291 335 28,000  Level Albuquerque Center
03:36PM 34.8228 -111.8714 214° Southwest 290 334 28,000  Level Albuquerque Center
03:37PM 34.7508 -111.9322 215° Southwest 289 333 28,000  Level Albuquerque Center
03:38PM 34.6847 -111.9856 214° Southwest 288 331 28,000  Level Albuquerque Center
03:39PM 34.6197 -112.0389 214° Southwest 284 327 28,000  Level Albuquerque Center
03:40PM 34.5542 -112.0925 214° Southwest 285 328 28,000 -540 Level Albuquerque Center
03:41PM 34.4786 -112.1556 215° Southwest 279 321 27,000 -1,020 Descending Albuquerque Center
03:42PM 34.4161 -112.2072 214° Southwest 275 316 25,900 -1,080 Descending Albuquerque Center
03:43PM 34.3522 -112.2592 214° Southwest 277 319 24,800 -1,080 Descending Albuquerque Center
03:44PM 34.2881 -112.3122 214° Southwest 280 322 23,700 -1,080 Descending Albuquerque Center
03:45PM 34.2231 -112.3661 214° Southwest 283 326 22,600 -1,200 Descending Albuquerque Center
03:46PM 34.1439 -112.4308 214° Southwest 286 329 21,300 -1,200 Descending Albuquerque Center
03:46PM 34.1386 -112.4369 224° Southwest 282 325 21,200 -1,080 Descending Albuquerque Center
03:47PM 34.0919 -112.4744 214° Southwest 279 321 20,400 -1,140 Descending Albuquerque Center
03:47PM 34.0800 -112.4828 210° Southwest 281 323 20,200 -1,800 Descending Albuquerque Center
03:48PM 34.0175 -112.5242 209° Southwest 278 320 18,400 -1,980 Descending Albuquerque Center
03:48PM 34.0114 -112.5228 169° South 280 322 18,200 -2,160 Descending Albuquerque Center
03:49PM 33.9539 -112.5019 163° South 269 310 16,500 -2,040 Descending Albuquerque Center
03:49PM 33.9403 -112.4939 154° Southeast 270 311 16,100 -2,160 Descending Albuquerque Center
03:50PM 33.8764 -112.4603 156° South 255 293 13,800 -2,580 Descending Albuquerque Center
03:51PM 33.8200 -112.4208 150° Southeast 238 274 11,300 -2,520 Descending Albuquerque Center
03:51PM 33.8192 -112.4192 121° Southeast 242 278 11,200 -2,520 Descending Albuquerque Center
03:52PM 33.7533 -112.3722 149° Southeast 230 265 8,200 -2,940 Descending Albuquerque Center
03:53PM 33.7172 -112.3472 150° Southeast 204 235 6,200 -2,760 Descending Albuquerque Center
03:53PM 33.7047 -112.3372 146° Southeast 208 239 5,400 -2,220 Descending Albuquerque Center
03:54PM 33.6711 -112.3156 152° Southeast 173 199 4,000 -1,680 Descending Albuquerque Center
03:54PM 33.6619 -112.3081 146° Southeast 183 211 3,700 -1,200 Descending Albuquerque Center
03:55PM 33.6283 -112.2908 157° South 178 205 2,800 -1,020 Descending Albuquerque Center
03:55PM 33.6181 -112.2833 149° Southeast 174 200 2,700 -420 Descending Albuquerque Center
03:56PM 33.5844 -112.2714 164° South 161 185 2,400 -540 Descending Albuquerque Center
03:56PM 33.5761 -112.2681 162° South 162 186 2,200 -840 Descending Albuquerque Center
03:57PM 33.5517 -112.2797 202° Southwest 118 136 1,600 -900 Descending Albuquerque Center
03:57PM 33.5381 -112.2881 207° Southwest 125 144 1,300 -720 Descending Albuquerque Center
03:59PM 33.5269 -112.2951 157° South  Level Estimated
04:06PM 33.5269 -112.2951 157° South  Level Estimated
04:07PM 33.5269 -112.2951 157° South  Level Estimated
04:08PM 33.5269 -112.2951 157° South  Level Estimated
04:09PM 33.5269 -112.2951 157° South  Level Estimated